Terminal Aerodrome Forecast
Issued by NWS Albuquerque, NM

Home | Current Version | Previous Version | Text Only | Print | Product List | Glossary On
Versions: 1 2 3 4 5 6 7 8 9 10 11 12 13 14 15 16 17 18 19 20 21 22 23
194
FTUS45 KABQ 170543 RRA
TAFABQ
TAF
KABQ 170543Z 1706/1806 10011KT P6SM VCSH SCT015 OVC040
      TEMPO 1706/1709 5SM -RA BR BKN015
     FM170900 09010KT P6SM SCT015 OVC040
     FM171500 12006KT P6SM OVC040
     FM171900 15005KT P6SM BKN050=

USA.gov is the U.S. government's official web portal to all federal, state and local government web resources and services.